sensor_id;sensor_type;location;lat;lon;timestamp;pressure;altitude;pressure_sealevel;temperature;humidity
77027;BME280;65956;52.986;17.490;2023-08-12T00:00:00;100956.53;;;13.28;76.64
77027;BME280;65956;52.986;17.490;2023-08-12T00:02:53;100954.59;;;13.22;76.91
77027;BME280;65956;52.986;17.490;2023-08-12T00:05:19;100952.82;;;13.16;77.25
77027;BME280;65956;52.986;17.490;2023-08-12T00:07:45;100956.38;;;13.13;77.30
77027;BME280;65956;52.986;17.490;2023-08-12T00:10:11;100962.90;;;13.11;77.30
77027;BME280;65956;52.986;17.490;2023-08-12T00:12:39;100961.48;;;13.10;77.54
77027;BME280;65956;52.986;17.490;2023-08-12T00:15:06;100962.27;;;13.09;77.35
77027;BME280;65956;52.986;17.490;2023-08-12T00:17:34;100960.84;;;13.13;77.26
77027;BME280;65956;52.986;17.490;2023-08-12T00:20:02;100962.04;;;13.18;77.00
77027;BME280;65956;52.986;17.490;2023-08-12T00:22:31;100960.96;;;13.20;77.01
77027;BME280;65956;52.986;17.490;2023-08-12T00:24:57;100961.77;;;13.20;77.14
77027;BME280;65956;52.986;17.490;2023-08-12T00:27:23;100963.82;;;13.18;77.15
77027;BME280;65956;52.986;17.490;2023-08-12T00:29:49;100964.98;;;13.17;77.30
77027;BME280;65956;52.986;17.490;2023-08-12T00:32:15;100969.49;;;13.14;77.47
77027;BME280;65956;52.986;17.490;2023-08-12T00:34:42;100967.75;;;13.11;77.58
77027;BME280;65956;52.986;17.490;2023-08-12T00:37:08;100970.05;;;13.07;77.87
77027;BME280;65956;52.986;17.490;2023-08-12T00:39:35;100971.31;;;13.04;77.72
77027;BME280;65956;52.986;17.490;2023-08-12T00:42:01;100967.86;;;13.04;77.77
77027;BME280;65956;52.986;17.490;2023-08-12T00:44:27;100966.41;;;13.03;77.87
77027;BME280;65956;52.986;17.490;2023-08-12T00:46:53;100964.35;;;13.01;77.99
77027;BME280;65956;52.986;17.490;2023-08-12T00:49:22;100961.98;;;12.98;78.15
77027;BME280;65956;52.986;17.490;2023-08-12T00:51:50;100958.52;;;12.95;78.03
77027;BME280;65956;52.986;17.490;2023-08-12T00:54:16;100956.81;;;12.95;78.20
77027;BME280;65956;52.986;17.490;2023-08-12T00:56:43;100950.13;;;12.92;78.55
77027;BME280;65956;52.986;17.490;2023-08-12T00:59:12;100941.04;;;12.88;78.70
77027;BME280;65956;52.986;17.490;2023-08-12T01:01:40;100936.24;;;12.84;78.73
77027;BME280;65956;52.986;17.490;2023-08-12T01:04:07;100934.73;;;12.81;79.00
77027;BME280;65956;52.986;17.490;2023-08-12T01:06:34;100930.80;;;12.79;79.10
77027;BME280;65956;52.986;17.490;2023-08-12T01:09:01;100932.85;;;12.78;79.02
77027;BME280;65956;52.986;17.490;2023-08-12T01:11:57;100929.79;;;12.77;79.06
77027;BME280;65956;52.986;17.490;2023-08-12T01:17:05;100924.73;;;12.75;78.73
77027;BME280;65956;52.986;17.490;2023-08-12T01:19:36;100922.84;;;12.77;78.93
77027;BME280;65956;52.986;17.490;2023-08-12T01:22:05;100923.45;;;12.75;78.97
77027;BME280;65956;52.986;17.490;2023-08-12T01:24:43;100921.71;;;12.71;79.11
77027;BME280;65956;52.986;17.490;2023-08-12T01:27:11;100929.51;;;12.69;79.19
77027;BME280;65956;52.986;17.490;2023-08-12T01:29:41;100927.80;;;12.67;79.36
77027;BME280;65956;52.986;17.490;2023-08-12T01:35:03;100929.80;;;12.64;79.20
77027;BME280;65956;52.986;17.490;2023-08-12T01:37:32;100938.83;;;12.63;79.26
77027;BME280;65956;52.986;17.490;2023-08-12T01:40:02;100933.29;;;12.62;79.58
77027;BME280;65956;52.986;17.490;2023-08-12T01:42:32;100932.32;;;12.61;79.32
77027;BME280;65956;52.986;17.490;2023-08-12T01:44:59;100929.02;;;12.60;79.31
77027;BME280;65956;52.986;17.490;2023-08-12T01:47:28;100928.25;;;12.58;79.62
77027;BME280;65956;52.986;17.490;2023-08-12T01:49:55;100930.77;;;12.57;79.60
77027;BME280;65956;52.986;17.490;2023-08-12T01:52:23;100930.55;;;12.60;79.37
77027;BME280;65956;52.986;17.490;2023-08-12T01:54:49;100928.10;;;12.63;79.24
77027;BME280;65956;52.986;17.490;2023-08-12T01:57:15;100929.92;;;12.62;79.44
77027;BME280;65956;52.986;17.490;2023-08-12T01:59:41;100930.89;;;12.58;79.55
77027;BME280;65956;52.986;17.490;2023-08-12T02:02:10;100927.98;;;12.56;79.64
77027;BME280;65956;52.986;17.490;2023-08-12T02:04:37;100925.83;;;12.56;79.65
77027;BME280;65956;52.986;17.490;2023-08-12T02:07:04;100924.49;;;12.54;79.96
77027;BME280;65956;52.986;17.490;2023-08-12T02:09:30;100920.98;;;12.50;79.95
77027;BME280;65956;52.986;17.490;2023-08-12T02:11:57;100925.09;;;12.47;79.93
77027;BME280;65956;52.986;17.490;2023-08-12T02:14:23;100920.41;;;12.44;79.97
77027;BME280;65956;52.986;17.490;2023-08-12T02:16:50;100921.20;;;12.43;80.24
77027;BME280;65956;52.986;17.490;2023-08-12T02:19:16;100919.87;;;12.41;80.36
77027;BME280;65956;52.986;17.490;2023-08-12T02:21:42;100917.33;;;12.42;80.45
77027;BME280;65956;52.986;17.490;2023-08-12T02:24:09;100909.80;;;12.41;80.55
77027;BME280;65956;52.986;17.490;2023-08-12T02:26:37;100908.73;;;12.43;80.36
77027;BME280;65956;52.986;17.490;2023-08-12T02:29:04;100908.28;;;12.45;80.54
77027;BME280;65956;52.986;17.490;2023-08-12T02:31:30;100909.73;;;12.45;80.32
77027;BME280;65956;52.986;17.490;2023-08-12T02:33:56;100917.39;;;12.49;80.28
77027;BME280;65956;52.986;17.490;2023-08-12T02:36:24;100918.33;;;12.52;80.30
77027;BME280;65956;52.986;17.490;2023-08-12T02:38:51;100912.11;;;12.53;80.30
77027;BME280;65956;52.986;17.490;2023-08-12T02:41:17;100911.55;;;12.52;80.32
77027;BME280;65956;52.986;17.490;2023-08-12T02:43:43;100907.44;;;12.51;80.38
77027;BME280;65956;52.986;17.490;2023-08-12T02:46:09;100909.23;;;12.49;80.55
77027;BME280;65956;52.986;17.490;2023-08-12T02:48:35;100910.61;;;12.46;80.71
77027;BME280;65956;52.986;17.490;2023-08-12T02:51:02;100915.85;;;12.43;80.72
77027;BME280;65956;52.986;17.490;2023-08-12T02:53:28;100916.27;;;12.41;80.93
77027;BME280;65956;52.986;17.490;2023-08-12T02:55:53;100911.69;;;12.39;81.02
77027;BME280;65956;52.986;17.490;2023-08-12T02:58:19;100909.91;;;12.38;81.08
77027;BME280;65956;52.986;17.490;2023-08-12T03:00:45;100912.02;;;12.36;81.13
77027;BME280;65956;52.986;17.490;2023-08-12T03:03:11;100916.09;;;12.36;81.02
77027;BME280;65956;52.986;17.490;2023-08-12T03:05:38;100918.80;;;12.36;81.16
77027;BME280;65956;52.986;17.490;2023-08-12T03:08:04;100920.93;;;12.34;81.27
77027;BME280;65956;52.986;17.490;2023-08-12T03:10:33;100924.77;;;12.31;81.14
77027;BME280;65956;52.986;17.490;2023-08-12T03:12:59;100924.48;;;12.29;81.24
77027;BME280;65956;52.986;17.490;2023-08-12T03:15:25;100930.37;;;12.27;81.42
77027;BME280;65956;52.986;17.490;2023-08-12T03:17:51;100925.95;;;12.27;81.71
77027;BME280;65956;52.986;17.490;2023-08-12T03:20:18;100926.77;;;12.26;81.42
77027;BME280;65956;52.986;17.490;2023-08-12T03:22:44;100929.88;;;12.27;81.43
77027;BME280;65956;52.986;17.490;2023-08-12T03:25:10;100929.97;;;12.27;81.52
77027;BME280;65956;52.986;17.490;2023-08-12T03:27:36;100929.16;;;12.26;81.41
77027;BME280;65956;52.986;17.490;2023-08-12T03:30:03;100932.11;;;12.26;81.62
77027;BME280;65956;52.986;17.490;2023-08-12T03:32:29;100932.57;;;12.25;81.80
77027;BME280;65956;52.986;17.490;2023-08-12T03:34:56;100936.29;;;12.24;81.89
77027;BME280;65956;52.986;17.490;2023-08-12T03:37:22;100936.17;;;12.27;81.78
77027;BME280;65956;52.986;17.490;2023-08-12T03:39:49;100938.89;;;12.30;81.62
77027;BME280;65956;52.986;17.490;2023-08-12T03:42:15;100936.23;;;12.33;81.70
77027;BME280;65956;52.986;17.490;2023-08-12T03:44:43;100934.73;;;12.33;81.75
77027;BME280;65956;52.986;17.490;2023-08-12T03:47:10;100930.41;;;12.33;81.81
77027;BME280;65956;52.986;17.490;2023-08-12T03:49:37;100926.46;;;12.35;81.92
77027;BME280;65956;52.986;17.490;2023-08-12T03:52:04;100929.19;;;12.36;81.97
77027;BME280;65956;52.986;17.490;2023-08-12T03:54:33;100935.15;;;12.38;82.00
77027;BME280;65956;52.986;17.490;2023-08-12T03:57:00;100931.84;;;12.41;81.78
77027;BME280;65956;52.986;17.490;2023-08-12T03:59:26;100928.15;;;12.44;81.65
77027;BME280;65956;52.986;17.490;2023-08-12T04:01:52;100930.02;;;12.46;81.66
77027;BME280;65956;52.986;17.490;2023-08-12T04:04:18;100927.47;;;12.46;81.83
77027;BME280;65956;52.986;17.490;2023-08-12T04:06:44;100933.94;;;12.46;81.99
77027;BME280;65956;52.986;17.490;2023-08-12T04:09:10;100931.91;;;12.48;82.06
77027;BME280;65956;52.986;17.490;2023-08-12T04:11:36;100935.00;;;12.51;81.84
77027;BME280;65956;52.986;17.490;2023-08-12T04:14:02;100934.08;;;12.53;81.88
77027;BME280;65956;52.986;17.490;2023-08-12T04:16:28;100927.71;;;12.55;82.04
77027;BME280;65956;52.986;17.490;2023-08-12T04:18:54;100920.59;;;12.58;81.79
77027;BME280;65956;52.986;17.490;2023-08-12T04:21:20;100919.61;;;12.61;81.96
77027;BME280;65956;52.986;17.490;2023-08-12T04:23:46;100922.21;;;12.63;81.92
77027;BME280;65956;52.986;17.490;2023-08-12T04:26:12;100925.38;;;12.66;81.76
77027;BME280;65956;52.986;17.490;2023-08-12T04:28:38;100918.00;;;12.69;81.88
77027;BME280;65956;52.986;17.490;2023-08-12T04:31:06;100922.42;;;12.71;81.74
77027;BME280;65956;52.986;17.490;2023-08-12T04:33:34;100919.77;;;12.75;81.90
77027;BME280;65956;52.986;17.490;2023-08-12T04:36:00;100922.08;;;12.78;82.05
77027;BME280;65956;52.986;17.490;2023-08-12T04:38:26;100919.77;;;12.84;81.90
77027;BME280;65956;52.986;17.490;2023-08-12T04:40:54;100923.16;;;12.90;81.78
77027;BME280;65956;52.986;17.490;2023-08-12T04:43:22;100919.61;;;12.97;81.68
77027;BME280;65956;52.986;17.490;2023-08-12T04:45:49;100922.63;;;13.05;81.65
77027;BME280;65956;52.986;17.490;2023-08-12T04:48:18;100921.03;;;13.14;81.89
77027;BME280;65956;52.986;17.490;2023-08-12T04:50:44;100929.20;;;13.24;81.60
77027;BME280;65956;52.986;17.490;2023-08-12T06:37:40;100850.67;;;20.82;59.21
77027;BME280;65956;52.986;17.490;2023-08-12T06:40:07;100852.95;;;20.92;60.50
77027;BME280;65956;52.986;17.490;2023-08-12T06:42:33;100855.09;;;21.09;61.03
77027;BME280;65956;52.986;17.490;2023-08-12T06:45:00;100858.15;;;21.24;59.80
77027;BME280;65956;52.986;17.490;2023-08-12T06:47:26;100856.08;;;21.32;56.59
77027;BME280;65956;52.986;17.490;2023-08-12T06:49:53;100857.91;;;21.34;57.03
77027;BME280;65956;52.986;17.490;2023-08-12T06:52:19;100860.21;;;21.40;57.71
77027;BME280;65956;52.986;17.490;2023-08-12T06:54:45;100857.58;;;21.51;57.36
77027;BME280;65956;52.986;17.490;2023-08-12T06:57:11;100855.17;;;21.62;57.17
77027;BME280;65956;52.986;17.490;2023-08-12T06:59:38;100855.56;;;21.71;56.67
77027;BME280;65956;52.986;17.490;2023-08-12T07:02:05;100854.69;;;21.83;56.52
77027;BME280;65956;52.986;17.490;2023-08-12T07:04:31;100851.91;;;21.89;55.04
77027;BME280;65956;52.986;17.490;2023-08-12T07:06:57;100851.10;;;21.92;55.61
77027;BME280;65956;52.986;17.490;2023-08-12T07:09:23;100854.03;;;22.00;55.89
77027;BME280;65956;52.986;17.490;2023-08-12T07:11:49;100859.34;;;22.10;54.92
77027;BME280;65956;52.986;17.490;2023-08-12T07:14:15;100857.55;;;22.18;54.61
77027;BME280;65956;52.986;17.490;2023-08-12T07:16:41;100857.88;;;22.22;53.52
77027;BME280;65956;52.986;17.490;2023-08-12T07:19:07;100858.60;;;22.29;54.07
77027;BME280;65956;52.986;17.490;2023-08-12T07:21:33;100856.35;;;22.31;52.74
77027;BME280;65956;52.986;17.490;2023-08-12T07:23:59;100853.38;;;22.34;52.81
77027;BME280;65956;52.986;17.490;2023-08-12T07:26:24;100848.10;;;22.41;53.52
77027;BME280;65956;52.986;17.490;2023-08-12T07:28:50;100847.69;;;22.52;54.18
77027;BME280;65956;52.986;17.490;2023-08-12T07:31:17;100845.40;;;22.63;52.58
77027;BME280;65956;52.986;17.490;2023-08-12T07:33:43;100846.44;;;22.75;53.05
77027;BME280;65956;52.986;17.490;2023-08-12T07:36:09;100838.13;;;22.89;52.56
77027;BME280;65956;52.986;17.490;2023-08-12T07:38:35;100838.90;;;22.97;51.24
77027;BME280;65956;52.986;17.490;2023-08-12T07:41:02;100842.80;;;23.10;51.95
77027;BME280;65956;52.986;17.490;2023-08-12T07:43:28;100845.48;;;23.26;50.41
77027;BME280;65956;52.986;17.490;2023-08-12T07:45:54;100846.67;;;23.42;50.93
77027;BME280;65956;52.986;17.490;2023-08-12T07:48:20;100850.48;;;23.69;50.82
77027;BME280;65956;52.986;17.490;2023-08-12T07:50:47;100851.64;;;23.92;50.33
77027;BME280;65956;52.986;17.490;2023-08-12T07:53:16;100848.09;;;24.09;48.66
77027;BME280;65956;52.986;17.490;2023-08-12T07:55:42;100847.20;;;24.19;48.95
77027;BME280;65956;52.986;17.490;2023-08-12T07:58:09;100843.95;;;24.29;48.89
77027;BME280;65956;52.986;17.490;2023-08-12T08:00:34;100842.52;;;24.38;48.63
77027;BME280;65956;52.986;17.490;2023-08-12T08:03:00;100839.32;;;24.45;48.38
77027;BME280;65956;52.986;17.490;2023-08-12T08:05:26;100840.35;;;24.53;48.46
77027;BME280;65956;52.986;17.490;2023-08-12T08:07:52;100836.55;;;24.55;47.40
77027;BME280;65956;52.986;17.490;2023-08-12T08:10:18;100832.23;;;24.48;46.40
77027;BME280;65956;52.986;17.490;2023-08-12T08:12:44;100831.41;;;24.45;47.63
77027;BME280;65956;52.986;17.490;2023-08-12T08:15:10;100833.98;;;24.36;46.29
77027;BME280;65956;52.986;17.490;2023-08-12T08:17:36;100833.56;;;24.23;46.07
77027;BME280;65956;52.986;17.490;2023-08-12T08:20:03;100839.58;;;24.14;46.65
77027;BME280;65956;52.986;17.490;2023-08-12T08:22:31;100832.79;;;24.16;46.85
77027;BME280;65956;52.986;17.490;2023-08-12T08:24:58;100833.13;;;24.26;47.04
77027;BME280;65956;52.986;17.490;2023-08-12T08:27:24;100831.41;;;24.40;46.62
77027;BME280;65956;52.986;17.490;2023-08-12T08:29:50;100824.70;;;24.48;46.80
77027;BME280;65956;52.986;17.490;2023-08-12T08:32:16;100823.57;;;24.56;46.00
77027;BME280;65956;52.986;17.490;2023-08-12T08:34:42;100817.69;;;24.54;45.14
77027;BME280;65956;52.986;17.490;2023-08-12T08:37:08;100817.29;;;24.56;46.01
77027;BME280;65956;52.986;17.490;2023-08-12T08:39:34;100822.34;;;24.66;46.39
77027;BME280;65956;52.986;17.490;2023-08-12T08:42:02;100818.84;;;24.71;45.38
77027;BME280;65956;52.986;17.490;2023-08-12T08:44:29;100817.88;;;24.70;45.42
77027;BME280;65956;52.986;17.490;2023-08-12T08:46:59;100812.27;;;24.78;45.94
77027;BME280;65956;52.986;17.490;2023-08-12T08:49:25;100815.70;;;24.87;45.71
77027;BME280;65956;52.986;17.490;2023-08-12T08:51:52;100811.23;;;24.92;45.10
77027;BME280;65956;52.986;17.490;2023-08-12T08:54:19;100808.94;;;24.95;44.78
77027;BME280;65956;52.986;17.490;2023-08-12T08:56:45;100809.60;;;24.97;44.42
77027;BME280;65956;52.986;17.490;2023-08-12T08:59:11;100807.64;;;24.95;44.49
77027;BME280;65956;52.986;17.490;2023-08-12T09:01:37;100807.05;;;24.93;44.77
77027;BME280;65956;52.986;17.490;2023-08-12T09:04:04;100809.93;;;24.94;44.87
77027;BME280;65956;52.986;17.490;2023-08-12T09:06:31;100811.22;;;25.02;44.74
77027;BME280;65956;52.986;17.490;2023-08-12T09:09:00;100809.46;;;25.06;44.85
77027;BME280;65956;52.986;17.490;2023-08-12T09:11:27;100814.11;;;25.10;44.63
77027;BME280;65956;52.986;17.490;2023-08-12T09:13:53;100811.92;;;25.19;44.62
77027;BME280;65956;52.986;17.490;2023-08-12T09:16:19;100809.95;;;25.25;43.74
77027;BME280;65956;52.986;17.490;2023-08-12T09:18:45;100807.48;;;25.30;43.94
77027;BME280;65956;52.986;17.490;2023-08-12T09:21:11;100804.56;;;25.27;42.72
77027;BME280;65956;52.986;17.490;2023-08-12T09:23:39;100804.80;;;25.22;43.00
77027;BME280;65956;52.986;17.490;2023-08-12T09:26:19;100799.15;;;25.28;43.74
77027;BME280;65956;52.986;17.490;2023-08-12T09:28:47;100798.79;;;25.38;43.39
77027;BME280;65956;52.986;17.490;2023-08-12T09:31:30;100795.36;;;25.52;43.63
77027;BME280;65956;52.986;17.490;2023-08-12T09:34:05;100790.45;;;25.66;42.34
77027;BME280;65956;52.986;17.490;2023-08-12T09:36:33;100784.65;;;25.72;42.76
77027;BME280;65956;52.986;17.490;2023-08-12T09:38:59;100782.33;;;25.80;43.07
77027;BME280;65956;52.986;17.490;2023-08-12T09:41:27;100776.11;;;25.86;42.55
77027;BME280;65956;52.986;17.490;2023-08-12T09:43:55;100769.64;;;25.85;42.45
77027;BME280;65956;52.986;17.490;2023-08-12T09:46:23;100769.50;;;25.82;42.76
77027;BME280;65956;52.986;17.490;2023-08-12T09:48:52;100767.64;;;25.84;42.82
77027;BME280;65956;52.986;17.490;2023-08-12T09:51:19;100765.57;;;25.87;42.62
77027;BME280;65956;52.986;17.490;2023-08-12T09:53:48;100759.27;;;25.92;42.35
77027;BME280;65956;52.986;17.490;2023-08-12T09:56:18;100755.64;;;25.95;42.63
77027;BME280;65956;52.986;17.490;2023-08-12T09:58:48;100753.50;;;26.02;41.97
77027;BME280;65956;52.986;17.490;2023-08-12T10:01:18;100750.36;;;26.11;42.47
77027;BME280;65956;52.986;17.490;2023-08-12T10:03:49;100751.98;;;26.20;42.26
77027;BME280;65956;52.986;17.490;2023-08-12T10:06:17;100753.59;;;26.29;41.94
77027;BME280;65956;52.986;17.490;2023-08-12T10:08:46;100755.65;;;26.30;41.63
77027;BME280;65956;52.986;17.490;2023-08-12T10:11:13;100750.85;;;26.25;40.77
77027;BME280;65956;52.986;17.490;2023-08-12T10:13:40;100752.19;;;26.20;41.41
77027;BME280;65956;52.986;17.490;2023-08-12T10:16:07;100754.31;;;26.31;41.97
77027;BME280;65956;52.986;17.490;2023-08-12T10:18:34;100753.92;;;26.44;41.38
77027;BME280;65956;52.986;17.490;2023-08-12T10:21:01;100750.08;;;26.54;41.36
77027;BME280;65956;52.986;17.490;2023-08-12T10:23:27;100747.58;;;26.69;41.69
77027;BME280;65956;52.986;17.490;2023-08-12T10:25:54;100746.56;;;26.81;40.69
77027;BME280;65956;52.986;17.490;2023-08-12T10:28:21;100744.27;;;26.86;40.43
77027;BME280;65956;52.986;17.490;2023-08-12T10:30:48;100739.58;;;26.92;40.28
77027;BME280;65956;52.986;17.490;2023-08-12T10:33:15;100735.34;;;27.04;40.59
77027;BME280;65956;52.986;17.490;2023-08-12T10:35:45;100726.49;;;27.13;40.31
77027;BME280;65956;52.986;17.490;2023-08-12T10:38:17;100725.35;;;27.22;39.53
77027;BME280;65956;52.986;17.490;2023-08-12T10:40:44;100727.73;;;27.29;39.17
77027;BME280;65956;52.986;17.490;2023-08-12T10:43:11;100730.81;;;27.42;39.36
77027;BME280;65956;52.986;17.490;2023-08-12T10:45:52;100719.91;;;27.46;38.20
77027;BME280;65956;52.986;17.490;2023-08-12T10:48:24;100716.85;;;27.60;38.45
77027;BME280;65956;52.986;17.490;2023-08-12T10:50:59;100715.66;;;27.78;38.35
77027;BME280;65956;52.986;17.490;2023-08-12T10:53:26;100709.73;;;27.92;37.53
77027;BME280;65956;52.986;17.490;2023-08-12T10:55:59;100707.80;;;28.07;36.85
77027;BME280;65956;52.986;17.490;2023-08-12T10:58:27;100704.07;;;28.33;37.50
77027;BME280;65956;52.986;17.490;2023-08-12T11:00:58;100705.68;;;28.59;36.42
77027;BME280;65956;52.986;17.490;2023-08-12T11:03:23;100705.93;;;28.84;36.02
77027;BME280;65956;52.986;17.490;2023-08-12T11:05:50;100700.47;;;29.05;35.84
77027;BME280;65956;52.986;17.490;2023-08-12T11:08:16;100699.83;;;29.35;36.42
77027;BME280;65956;52.986;17.490;2023-08-12T11:10:42;100703.19;;;29.68;35.35
77027;BME280;65956;52.986;17.490;2023-08-12T11:13:09;100700.83;;;30.00;34.82
77027;BME280;65956;52.986;17.490;2023-08-12T11:15:41;100697.85;;;30.37;34.41
77027;BME280;65956;52.986;17.490;2023-08-12T11:18:10;100697.45;;;30.62;33.13
77027;BME280;65956;52.986;17.490;2023-08-12T11:20:37;100696.83;;;30.78;32.74
77027;BME280;65956;52.986;17.490;2023-08-12T11:23:04;100694.14;;;31.08;33.24
77027;BME280;65956;52.986;17.490;2023-08-12T11:25:32;100689.95;;;31.30;31.50
77027;BME280;65956;52.986;17.490;2023-08-12T11:27:58;100688.63;;;31.58;32.41
77027;BME280;65956;52.986;17.490;2023-08-12T11:30:25;100683.80;;;31.97;32.21
77027;BME280;65956;52.986;17.490;2023-08-12T11:32:53;100681.14;;;32.32;30.95
77027;BME280;65956;52.986;17.490;2023-08-12T11:35:23;100683.64;;;32.54;30.31
77027;BME280;65956;52.986;17.490;2023-08-12T11:37:52;100679.63;;;32.66;29.96
77027;BME280;65956;52.986;17.490;2023-08-12T11:40:27;100678.89;;;32.60;30.20
77027;BME280;65956;52.986;17.490;2023-08-12T11:42:54;100673.98;;;32.53;28.87
77027;BME280;65956;52.986;17.490;2023-08-12T11:45:22;100677.30;;;32.72;29.90
77027;BME280;65956;52.986;17.490;2023-08-12T11:47:49;100676.61;;;32.91;29.20
77027;BME280;65956;52.986;17.490;2023-08-12T11:50:20;100669.64;;;33.09;29.61
77027;BME280;65956;52.986;17.490;2023-08-12T11:52:47;100673.12;;;33.31;28.99
77027;BME280;65956;52.986;17.490;2023-08-12T11:55:14;100663.68;;;33.36;28.93
77027;BME280;65956;52.986;17.490;2023-08-12T11:57:40;100656.02;;;33.20;28.18
77027;BME280;65956;52.986;17.490;2023-08-12T12:00:09;100656.65;;;33.18;29.25
77027;BME280;65956;52.986;17.490;2023-08-12T12:02:50;100649.84;;;33.24;28.52
77027;BME280;65956;52.986;17.490;2023-08-12T12:05:26;100648.59;;;33.26;28.89
77027;BME280;65956;52.986;17.490;2023-08-12T12:07:52;100651.11;;;32.99;28.57
77027;BME280;65956;52.986;17.490;2023-08-12T12:10:27;100656.23;;;32.93;29.29
77027;BME280;65956;52.986;17.490;2023-08-12T12:12:55;100656.73;;;33.02;29.16
77027;BME280;65956;52.986;17.490;2023-08-12T12:15:21;100648.80;;;33.28;28.87
77027;BME280;65956;52.986;17.490;2023-08-12T12:17:49;100651.18;;;33.38;28.48
77027;BME280;65956;52.986;17.490;2023-08-12T12:20:15;100652.52;;;33.54;28.95
77027;BME280;65956;52.986;17.490;2023-08-12T12:22:43;100648.99;;;33.60;28.39
77027;BME280;65956;52.986;17.490;2023-08-12T12:25:11;100642.98;;;33.68;28.72
77027;BME280;65956;52.986;17.490;2023-08-12T12:27:38;100639.77;;;33.79;28.44
77027;BME280;65956;52.986;17.490;2023-08-12T12:30:07;100639.02;;;33.62;28.03
77027;BME280;65956;52.986;17.490;2023-08-12T12:32:34;100638.69;;;33.46;28.07
77027;BME280;65956;52.986;17.490;2023-08-12T12:35:01;100635.20;;;33.72;28.59
77027;BME280;65956;52.986;17.490;2023-08-12T12:37:27;100634.92;;;34.79;27.01
77027;BME280;65956;52.986;17.490;2023-08-12T12:39:53;100628.02;;;36.26;25.17
77027;BME280;65956;52.986;17.490;2023-08-12T12:42:22;100629.39;;;36.95;23.94
77027;BME280;65956;52.986;17.490;2023-08-12T12:44:48;100622.63;;;37.59;23.01
77027;BME280;65956;52.986;17.490;2023-08-12T12:47:14;100619.87;;;38.47;22.38
77027;BME280;65956;52.986;17.490;2023-08-12T12:49:40;100615.48;;;39.26;21.44
77027;BME280;65956;52.986;17.490;2023-08-12T12:52:09;100606.92;;;40.14;21.59
77027;BME280;65956;52.986;17.490;2023-08-12T12:54:35;100596.38;;;41.41;20.51
77027;BME280;65956;52.986;17.490;2023-08-12T12:57:02;100591.05;;;42.17;19.66
77027;BME280;65956;52.986;17.490;2023-08-12T12:59:30;100585.16;;;42.94;18.83
77027;BME280;65956;52.986;17.490;2023-08-12T13:01:59;100592.86;;;43.58;17.90
77027;BME280;65956;52.986;17.490;2023-08-12T13:04:25;100592.81;;;43.45;17.57
77027;BME280;65956;52.986;17.490;2023-08-12T13:06:51;100585.30;;;42.85;17.28
77027;BME280;65956;52.986;17.490;2023-08-12T13:09:17;100586.40;;;43.15;17.12
77027;BME280;65956;52.986;17.490;2023-08-12T13:11:43;100584.52;;;43.70;16.84
77027;BME280;65956;52.986;17.490;2023-08-12T13:14:09;100592.55;;;43.40;16.32
77027;BME280;65956;52.986;17.490;2023-08-12T13:16:35;100588.70;;;43.42;16.94
77027;BME280;65956;52.986;17.490;2023-08-12T13:19:02;100585.42;;;43.97;16.90
77027;BME280;65956;52.986;17.490;2023-08-12T13:21:27;100581.92;;;44.53;16.74
77027;BME280;65956;52.986;17.490;2023-08-12T13:23:53;100583.48;;;44.70;16.12
77027;BME280;65956;52.986;17.490;2023-08-12T13:26:21;100577.74;;;44.79;15.98
77027;BME280;65956;52.986;17.490;2023-08-12T13:28:47;100578.19;;;44.87;15.96
77027;BME280;65956;52.986;17.490;2023-08-12T13:31:14;100574.02;;;44.92;15.80
77027;BME280;65956;52.986;17.490;2023-08-12T13:33:40;100571.98;;;45.26;15.80
77027;BME280;65956;52.986;17.490;2023-08-12T13:36:06;100568.27;;;45.18;15.48
77027;BME280;65956;52.986;17.490;2023-08-12T13:38:32;100568.50;;;44.98;15.23
77027;BME280;65956;52.986;17.490;2023-08-12T13:40:58;100567.55;;;44.97;15.27
77027;BME280;65956;52.986;17.490;2023-08-12T13:43:24;100569.23;;;44.16;15.68
77027;BME280;65956;52.986;17.490;2023-08-12T13:45:50;100560.37;;;42.70;16.05
77027;BME280;65956;52.986;17.490;2023-08-12T13:48:16;100559.06;;;41.71;17.11
77027;BME280;65956;52.986;17.490;2023-08-12T13:50:42;100557.80;;;41.61;17.92
77027;BME280;65956;52.986;17.490;2023-08-12T13:53:09;100556.53;;;41.65;17.84
77027;BME280;65956;52.986;17.490;2023-08-12T13:55:35;100545.66;;;41.52;17.45
77027;BME280;65956;52.986;17.490;2023-08-12T13:58:01;100538.73;;;41.44;17.87
77027;BME280;65956;52.986;17.490;2023-08-12T14:00:27;100535.85;;;41.58;18.15
77027;BME280;65956;52.986;17.490;2023-08-12T14:02:53;100530.38;;;41.16;17.85
77027;BME280;65956;52.986;17.490;2023-08-12T14:05:19;100530.09;;;40.86;18.28
77027;BME280;65956;52.986;17.490;2023-08-12T14:07:45;100527.92;;;40.26;18.88
77027;BME280;65956;52.986;17.490;2023-08-12T14:10:11;100519.91;;;40.08;19.05
77027;BME280;65956;52.986;17.490;2023-08-12T14:12:38;100519.31;;;40.22;19.61
77027;BME280;65956;52.986;17.490;2023-08-12T14:15:04;100512.91;;;40.18;19.44
77027;BME280;65956;52.986;17.490;2023-08-12T14:17:30;100516.14;;;39.58;19.95
77027;BME280;65956;52.986;17.490;2023-08-12T14:19:56;100512.83;;;38.65;20.65
77027;BME280;65956;52.986;17.490;2023-08-12T14:22:24;100512.95;;;37.73;21.62
77027;BME280;65956;52.986;17.490;2023-08-12T14:24:50;100506.50;;;36.91;22.64
77027;BME280;65956;52.986;17.490;2023-08-12T14:27:16;100499.33;;;36.25;23.24
77027;BME280;65956;52.986;17.490;2023-08-12T14:29:46;100493.53;;;35.46;23.89